Wan Hai 273 — 9V7586 — position and weather

sailwx.info

Track history (hours):
 
Tides and Currents Weather Stations Pressure Air Temp Water Temp Dewpoint Dewpoint Depression Visibility Wind Speed Wind Dir Waves Ship Positions

Wan Hai 273

Last reported at 2015-Mar-25 20:11 UTC. Time now 2015-Mar-27 10:19 UTC.
Position N 22°52' E 116°59'.

Length 172 m; draft 9.3 m.

Type: Cargo ship. MMSI: 566406000.

Date/timePositionNaut miles runAvg speedWind from/ knotsBaromVisibWave heightAir tempDewpointWater temp
2015-Mar-25 20:11N 22°52' E 116°59'15513.3
2015-Mar-25 08:33N 22°07' E 114°18'1413.4
2015-Mar-25 07:29N 22°16' E 114°06'1210.8
2015-Mar-25 06:21N 22°22' E 113°54'6 1.0
2015-Mar-25 00:23N 22°28' E 113°54'0 0.0
2015-Mar-24 23:28N 22°28' E 113°54'0 0.0
2015-Mar-24 22:29N 22°28' E 113°54'0 0.0
2015-Mar-24 21:29N 22°28' E 113°54'0 0.1
2015-Mar-24 20:33N 22°28' E 113°54'6 6.4
2015-Mar-24 19:34N 22°22' E 113°55'10 9.7
2015-Mar-24 18:33N 22°19' E 114°06'2 1.6
2015-Mar-24 17:23N 22°21' E 114°07'0 0.0
2015-Mar-24 16:29N 22°21' E 114°07'0 0.0
2015-Mar-24 15:32N 22°21' E 114°07'0 0.0
2015-Mar-24 12:14N 22°21' E 114°07'0 0.0
2015-Mar-24 09:23N 22°21' E 114°07'0 0.0
2015-Mar-24 07:29N 22°20' E 114°07'7 7.7
2015-Mar-24 06:33N 22°14' E 114°09'6 6.1
2015-Mar-24 05:32N 22°09' E 114°14'7 7.0
2015-Mar-24 04:33N 22°08' E 114°21'  
Track history (hours):
 
Tides and Currents Weather Stations Pressure Air Temp Water Temp Dewpoint Dewpoint Depression Visibility Wind Speed Wind Dir Waves Ship Positions

Wan Hai 273

Last reported at 2015-Mar-25 20:11 UTC. Time now 2015-Mar-27 10:19 UTC.
Position N 22°52' E 116°59'.

Length 172 m; draft 9.3 m.

Type: Cargo ship. MMSI: 566406000.

Date/timePositionNaut miles runAvg speedWind from/ knotsBaromVisibWave heightAir tempDewpointWater temp
2015-Mar-25 20:11N 22°52' E 116°59'15513.3
2015-Mar-25 08:33N 22°07' E 114°18'1413.4
2015-Mar-25 07:29N 22°16' E 114°06'1210.8
2015-Mar-25 06:21N 22°22' E 113°54'6 1.0
2015-Mar-25 00:23N 22°28' E 113°54'0 0.0
2015-Mar-24 23:28N 22°28' E 113°54'0 0.0
2015-Mar-24 22:29N 22°28' E 113°54'0 0.0
2015-Mar-24 21:29N 22°28' E 113°54'0 0.1
2015-Mar-24 20:33N 22°28' E 113°54'6 6.4
2015-Mar-24 19:34N 22°22' E 113°55'10 9.7
2015-Mar-24 18:33N 22°19' E 114°06'2 1.6
2015-Mar-24 17:23N 22°21' E 114°07'0 0.0
2015-Mar-24 16:29N 22°21' E 114°07'0 0.0
2015-Mar-24 15:32N 22°21' E 114°07'0 0.0
2015-Mar-24 12:14N 22°21' E 114°07'0 0.0
2015-Mar-24 09:23N 22°21' E 114°07'0 0.0
2015-Mar-24 07:29N 22°20' E 114°07'7 7.7
2015-Mar-24 06:33N 22°14' E 114°09'6 6.1
2015-Mar-24 05:32N 22°09' E 114°14'7 7.0
2015-Mar-24 04:33N 22°08' E 114°21'  

Dump ship's entire track history